x

8452951 - Potter Cove, Prudence Island, Ri (ptcr1) Weather Station

1:30 - Fri 24th Mar 2017 All times are EDT. -4 hours from GMT.

  • Wind
    2mph
  • Ar Temp 31°f
  • Sea Pressure 1034.9mb
  • 8452951 - Potter Cove, Prudence Island, Ri
  • 8452951 - Potter Cove, Prudence Island, Ri

More Historic Weather Station data

Upgrade to MSW Pro to gain access to the past 30 days of data for over 8000 Wavebouys and Weather Stations around the globe.

Join Pro

Comparision Forecast

View Surf forecast
   
Sex 03/24 1:30 2
mph
1034.9mb 31f
1:24 2 3 mph 1034.9mb 31f
1:18 3 5 mph 1035.1mb 31f
1:12 1 2 mph 1035mb 30f
1:06  -  1 mph 1035mb 31f
1:00 1 2 mph 1035.1mb 31f
12:54 3 5 mph 1034.9mb 31f
12:48 1 2 mph 1034.8mb 31f
12:42 3 5 mph 1034.8mb 31f
12:36 5 6 mph 1034.4mb 31f
12:30 3 5 mph 1034.3mb 31f
12:24 3 5 mph 1034.5mb 31f
12:18 6 7 mph 1034.6mb 31f
12:12 3 6 mph 1034.4mb 31f
12:06 1 2 mph 1034.6mb 31f
12:00 3 7 mph 1034.7mb 31f
Qui 03/23 11:54 5 7 mph 1034.7mb 31f
11:48 5 6 mph 1034.8mb 31f
11:42 3 5 mph 1034.9mb 31f
11:36 5 7 mph 1035mb 31f
11:30 3 6 mph 1034.8mb 31f
11:24 3 6 mph 1035.1mb 31f
11:18 5 6 mph 1035.1mb 31f
11:12 3 6 mph 1035.1mb 31f
11:06 5 6 mph 1035.2mb 31f
11:00 3 6 mph 1035.2mb 32f
10:54 6 8 mph 1035.1mb 31f
10:48 3 6 mph 1035.1mb 32f
10:42 5 7 mph 1035.2mb 32f
10:36 6 10 mph 1035.3mb 32f
10:30 5 10 mph 1035.2mb 32f
10:24 5 8 mph 1035.1mb 32f
10:18 5 7 mph - -
10:12 3 6 mph 1035.4mb 32f
10:06 5 9 mph 1035.2mb 32f
10:00 7 9 mph 1034.9mb 32f
9:54 5 6 mph 1034.7mb 32f
9:48 5 6 mph 1034.8mb 32f
9:42 2 6 mph 1034.8mb 32f
9:36 3 6 mph 1034.8mb 32f
9:30 5 7 mph 1034.7mb 33f
9:24 5 8 mph 1034.6mb 33f
9:18 5 8 mph - -
9:12 5 6 mph 1034.6mb 33f
9:06 6 8 mph 1034.3mb 33f
9:00 6 8 mph 1034.2mb 33f
8:54 3 6 mph 1034.2mb 33f
8:48 6 7 mph 1034.1mb 33f
8:42 5 6 mph 1034.1mb 33f
8:36 5 7 mph 1033.9mb 33f
8:30 3 6 mph 1033.8mb 33f
8:24 3 6 mph 1033.8mb 34f
8:18 3 6 mph - -
8:12 5 8 mph 1033.5mb 34f
8:06 5 6 mph 1033.3mb 34f
8:00 3 8 mph 1033.3mb 34f
7:54 3 7 mph 1033.3mb 35f
7:48 2 6 mph 1033.2mb 35f
7:42 5 10 mph 1033.1mb 35f
7:36 5 8 mph 1032.9mb 35f
7:30 5 10 mph 1032.7mb 35f
7:24 5 9 mph 1032.8mb 35f
7:18 6 9 mph - -
7:12 6 10 mph 1032.8mb 36f
7:06 6 13 mph 1032.8mb 36f
7:00 8 14 mph 1032.8mb 36f
6:54 9 21 mph 1032.6mb 36f
6:48 8 17 mph 1032.4mb 36f
6:42 9 16 mph 1032.2mb 37f
6:36 9 17 mph 1032.2mb 37f
6:30 9 16 mph 1032.1mb 37f
6:24 9 16 mph 1032.1mb 38f
6:18 8 16 mph - -
6:12 6 14 mph 1031.9mb 38f
6:06 7 11 mph 1031.8mb 38f
6:00 8 20 mph 1031.7mb 38f
5:54 9 15 mph 1031.6mb 38f
5:48 7 14 mph 1031.5mb 39f
5:42 9 16 mph 1031.6mb 38f
5:36 6 13 mph 1031.6mb 39f
5:30 9 17 mph 1031.5mb 39f
5:24 7 14 mph 1031.5mb 39f
5:18 6 13 mph 1031.4mb 40f
5:12 7 13 mph 1031.4mb 40f
5:06 8 14 mph 1031.4mb 39f
5:00 7 14 mph 1031.3mb 39f
4:54 7 14 mph 1031.3mb 40f
4:48 6 14 mph 1031.4mb 40f
4:42 6 11 mph 1031.4mb 40f
4:36 7 13 mph 1031.4mb 40f
4:30 6 11 mph 1031.4mb 39f
4:24 9 18 mph 1031.4mb 39f
4:18 8 15 mph 1031.4mb 39f
4:12 7 17 mph 1031.5mb 39f
4:06 7 13 mph 1031.4mb 39f
4:00 8 14 mph 1031.3mb 40f
3:54 7 14 mph 1031.4mb 38f
3:48 8 14 mph 1031.5mb 39f
3:42 7 14 mph 1031.6mb 38f
3:36 7 13 mph 1031.6mb 39f
3:30 8 18 mph 1031.5mb 39f
3:24 8 15 mph 1031.5mb 39f
3:18 8 16 mph 1031.4mb 38f
3:12 7 15 mph 1031.4mb 37f
3:06 6 14 mph 1031.4mb 38f
3:00 7 14 mph 1031.5mb 39f
2:54 8 17 mph 1031.6mb 38f
2:48 8 15 mph 1031.6mb 38f
2:42 7 13 mph 1031.6mb 36f
2:36 7 17 mph 1031.7mb 38f
2:30 8 16 mph 1031.8mb 36f
2:24 9 18 mph 1031.7mb 37f
2:18 9 21 mph 1031.8mb 36f
2:12 10 16 mph 1031.8mb 36f
2:06 6 11 mph 1031.8mb 36f
2:00 9 16 mph 1031.9mb 36f
1:54 6 14 mph 1032mb 36f
1:48 6 11 mph 1032mb 36f
1:42 8 15 mph 1032.1mb 35f
1:36 8 13 mph 1032.1mb 35f
1:30 9 16 mph 1032.2mb 34f
1:24 9 16 mph 1032.3mb 33f
1:18 8 15 mph 1032.3mb 34f
1:12 11 17 mph 1032.4mb 33f
1:06 7 13 mph 1032.5mb 33f
1:00 8 16 mph 1032.5mb 34f
12:54 6 14 mph 1032.7mb 33f
12:48 9 20 mph 1032.8mb 33f
12:42 6 10 mph 1032.8mb 33f
12:36 8 17 mph 1033mb 33f
12:30 9 15 mph 1033mb 33f
12:24 8 15 mph 1033.1mb 32f
12:18 6 11 mph 1033.1mb 32f
12:12 5 11 mph 1033.2mb 33f
12:06 6 11 mph 1033.3mb 33f
12:00 8 15 mph 1033.3mb 33f
11:54 5 11 mph 1033.4mb 32f
11:48 7 14 mph - -
11:42 6 14 mph 1033.6mb 31f
11:36 8 14 mph 1033.6mb 31f
11:30 8 16 mph 1033.7mb 30f
11:24 6 15 mph 1033.7mb 31f
11:18 7 14 mph 1033.8mb 30f
11:12 7 13 mph 1033.8mb 31f
11:06 6 13 mph 1033.8mb 29f
11:00 8 16 mph 1033.9mb 30f
10:54 11 21 mph 1034mb 29f
10:48 6 13 mph 1034mb 28f
10:42 7 15 mph 1034mb 28f
10:36 7 15 mph 1033.9mb 28f
10:30 9 16 mph 1034mb 27f
10:24 9 17 mph 1033.9mb 27f
10:18 9 16 mph 1033.9mb 26f
10:12 9 16 mph 1033.9mb 26f
10:06 9 17 mph 1033.9mb 26f
10:00 9 18 mph 1034mb 26f
9:54 8 16 mph 1034mb 26f
9:48 10 20 mph 1034mb 26f
9:42 11 20 mph 1034mb 25f
9:36 13 21 mph 1034mb 25f
9:30 13 20 mph 1034mb 24f
9:24 10 18 mph 1034mb 25f
9:18 10 17 mph 1034mb 24f
9:12 10 22 mph 1034mb 24f
9:06 11 21 mph 1034mb 24f
9:00 8 15 mph 1033.9mb 24f
8:54 13 20 mph 1033.9mb 23f
8:48 11 20 mph 1033.8mb 23f
8:42 9 17 mph 1033.8mb 22f
8:36 8 16 mph 1033.8mb 22f
8:30 14 26 mph 1033.8mb 22f
8:24 8 21 mph 1033.8mb 22f
8:18 10 20 mph 1033.8mb 22f
8:12 6 13 mph 1033.7mb 22f
8:06 8 18 mph 1033.7mb 22f
8:00 5 11 mph 1033.7mb 22f
7:54 7 13 mph 1033.5mb 21f
7:48 8 16 mph 1033.5mb 21f
7:42 6 10 mph 1033.5mb 21f
7:36 7 14 mph 1033.3mb 21f
7:30 7 13 mph 1033.3mb 20f
7:24 7 13 mph 1033.1mb 20f
7:18 7 13 mph - -
7:12 6 9 mph 1032.9mb 20f
7:06 6 13 mph 1032.8mb 20f
7:00 7 14 mph 1032.7mb 20f
6:54 6 16 mph 1032.7mb 19f
6:48 6 13 mph 1032.5mb 19f
6:42 8 15 mph 1032.4mb 19f
6:36 6 13 mph 1032.3mb 19f
6:30 7 14 mph 1032.2mb 19f
6:24 6 13 mph 1032.2mb 19f
6:18 6 13 mph 1032mb 19f
6:12 6 13 mph 1031.9mb 19f
6:06 6 13 mph 1031.8mb 19f
6:00 5 8 mph 1031.7mb 19f
5:54 5 8 mph 1031.5mb 19f
5:48 5 9 mph 1031.4mb 19f
5:42 7 13 mph 1031.3mb 19f
5:36 5 9 mph 1031.2mb 19f
5:30 7 14 mph 1031.2mb 19f
5:24 6 14 mph 1031mb 19f
5:18 6 14 mph - -
5:12 8 15 mph 1030.9mb 19f
5:06 7 14 mph 1030.8mb 19f
5:00 6 11 mph 1030.8mb 19f
4:54 6 14 mph 1030.7mb 19f
4:48 6 14 mph 1030.6mb 19f
4:42 9 16 mph 1030.6mb 19f
4:36 8 16 mph 1030.5mb 20f
4:30 6 17 mph 1030.4mb 19f
4:24 8 18 mph 1030.3mb 19f
4:18 6 11 mph 1030.3mb 19f
4:12 9 17 mph 1030.3mb 19f
4:06 9 16 mph 1030.3mb 19f
4:00 6 10 mph 1030.2mb 19f
3:54 8 17 mph 1030.1mb 19f
3:48 7 16 mph 1030.1mb 19f
3:42 7 14 mph 1030.1mb 19f
3:36 5 11 mph 1030mb 19f
3:30 10 18 mph 1030mb 19f
3:24 9 18 mph 1030mb 19f
3:18 8 15 mph 1030mb 20f
3:12 10 18 mph 1030mb 19f
3:06 11 23 mph 1029.9mb 20f
3:00 10 21 mph 1029.9mb 20f
2:54 8 15 mph 1029.9mb 20f
2:48 8 15 mph 1029.8mb -
2:42 9 18 mph 1029.8mb -
2:36 6 13 mph 1029.7mb -
2:30 9 16 mph 1029.7mb 19f
2:24 10 20 mph 1029.7mb 19f
2:18 11 20 mph 1029.7mb 20f
2:12 10 20 mph 1029.6mb 20f
2:06 9 18 mph 1029.6mb 20f
2:00 10 22 mph 1029.6mb 20f
1:54 7 14 mph 1029.7mb 20f
1:48 8 17 mph 1029.7mb 20f
1:42 11 22 mph 1029.6mb -
1:36 9 18 mph 1029.6mb -
1:30 11 23 mph 1029.4mb 20f
1:24 14 25 mph 1029.4mb 20f
1:18 14 28 mph 1029.3mb 20f
1:12 13 25 mph 1029.2mb 20f
1:06 13 24 mph 1029.1mb 20f
1:00 13 21 mph 1029mb 21f
12:54 11 23 mph 1028.9mb 21f
12:48 14 25 mph 1028.8mb 21f
12:42 16 32 mph 1028.8mb 21f
12:36 10 18 mph 1028.7mb 21f
12:30 15 24 mph 1028.6mb 21f
12:24 16 28 mph 1028.4mb 21f
12:18 13 23 mph 1028.4mb 21f
12:12 10 21 mph 1028.3mb 21f
12:06 15 24 mph 1028.2mb 22f
12:00 15 31 mph 1028.1mb 22f
Qua 03/22 11:54 16 31 mph 1027.9mb 22f
11:48 16 33 mph 1027.8mb -
11:42 14 25 mph 1027.7mb 22f
11:36 9 26 mph 1027.5mb 22f
11:30 11 24 mph 1027.4mb 22f
11:24 14 24 mph 1027.3mb 23f
11:18 10 29 mph 1027.2mb 23f
11:12 15 31 mph 1027mb 23f
11:06 13 25 mph 1026.9mb 23f
11:00 16 30 mph 1026.8mb 23f
10:54 15 29 mph 1026.7mb 23f
10:48 14 29 mph - -
10:42 11 18 mph 1026.6mb 23f
10:36 13 29 mph 1026.5mb 24f
10:30 13 24 mph 1026.4mb 24f
10:24 20 32 mph 1026.3mb 24f
10:18 18 31 mph 1026.2mb 24f
10:12 13 24 mph 1026mb 24f
10:06 9 18 mph 1026mb 24f
10:00 14 24 mph 1026mb 24f
9:54 7 18 mph 1025.9mb 24f
9:48 14 25 mph 1025.8mb -
9:42 14 25 mph 1025.7mb 24f
9:36 13 26 mph 1025.6mb 24f
9:30 10 25 mph 1025.4mb 24f
9:24 11 23 mph 1025.4mb 24f
9:18 10 23 mph 1025.2mb 25f
9:12 13 25 mph 1025.1mb 25f
9:06 11 24 mph 1025.1mb 25f
9:00 14 26 mph 1024.9mb 25f
8:54 13 22 mph 1024.9mb 25f
8:48 11 22 mph 1024.8mb -
8:42 14 26 mph 1024.7mb 25f
8:36 7 17 mph 1024.6mb 25f
8:30 14 33 mph 1024.4mb 26f
8:24 8 15 mph 1024.2mb 26f
8:18 9 17 mph 1024mb 25f
8:12 9 22 mph 1023.9mb 26f
8:06 13 26 mph 1023.7mb 26f
8:00 15 29 mph 1023.5mb 26f
7:54 14 26 mph 1023.4mb 26f
7:48 13 29 mph 1023.1mb -
7:42 14 29 mph 1023mb 26f
7:36 10 28 mph 1022.9mb 26f
7:30 9 23 mph 1022.7mb 27f
7:24 10 23 mph 1022.6mb 27f
7:18 14 22 mph - -
7:12 8 17 mph 1022.3mb 27f
7:06 9 18 mph 1022mb 27f
7:00 14 25 mph 1021.8mb 28f
6:54 10 21 mph 1021.7mb 28f
6:48 11 23 mph 1021.6mb -
6:42 9 25 mph 1021.5mb 28f
6:36 9 20 mph 1021.3mb 28f
6:30 10 21 mph 1021.1mb 29f
6:24 13 24 mph 1021mb 29f
6:18 11 31 mph 1020.8mb -
6:12 10 26 mph 1020.6mb 29f
6:06 10 20 mph 1020.6mb 29f
6:00 11 26 mph 1020.5mb 29f
5:54 16 32 mph 1020.3mb 29f
5:48 14 31 mph - -
5:42 10 22 mph 1020.1mb 29f
5:36 14 25 mph 1019.9mb 30f
5:30 14 26 mph 1019.8mb 30f
5:24 11 24 mph 1019.5mb 30f
5:18 14 25 mph 1019.5mb 30f
5:12 10 28 mph 1019.2mb 30f
5:06 10 22 mph 1019mb 31f
5:00 14 28 mph 1019mb 31f
4:54 14 28 mph 1019mb 31f
4:48 13 25 mph 1018.9mb 31f
4:42 10 25 mph 1018.7mb 31f
4:36 11 29 mph 1018.6mb 31f
4:30 8 16 mph 1018.6mb 32f
4:24 11 22 mph 1018.4mb 32f
4:18 14 25 mph 1018.3mb 32f
4:12 13 24 mph 1018.2mb 32f
4:06 11 24 mph 1018.2mb 32f
4:00 11 22 mph 1018.1mb 32f
3:54 11 23 mph 1017.8mb 33f
3:48 13 26 mph 1017.7mb 33f
3:42 9 21 mph 1017.7mb 33f
3:36 15 29 mph 1017.7mb 34f
3:30 14 28 mph 1017.6mb 32f
3:24 14 25 mph 1017.5mb 33f
3:18 11 23 mph - -
3:12 14 26 mph 1017.4mb 33f
3:06 14 29 mph 1017.5mb 32f
3:00 14 32 mph 1017.2mb 33f
2:54 10 25 mph 1017mb 33f
2:48 11 24 mph 1017mb 33f
2:42 14 26 mph 1016.8mb 34f
2:36 16 33 mph 1016.9mb 32f
2:30 13 32 mph 1016.8mb 33f
2:24 13 22 mph 1016.5mb 33f
2:18 11 29 mph - -
2:12 14 30 mph 1016.4mb 34f
2:06 13 28 mph 1016.4mb 34f
2:00 15 33 mph 1016.5mb 34f
1:54 14 32 mph 1016.3mb 34f
1:48 10 24 mph 1016.1mb 34f
1:42 14 24 mph 1015.9mb 35f
1:36 13 28 mph 1015.9mb 34f
1:30 11 24 mph 1016mb 35f
1:24 11 29 mph 1015.9mb 35f
1:18 15 30 mph 1015.9mb 35f
1:12 14 29 mph 1015.8mb 35f
1:06 16 29 mph 1015.6mb 36f
1:00 13 25 mph 1015.4mb 35f
12:54 13 29 mph 1015.3mb 37f
12:48 14 23 mph 1015.2mb 36f
12:42 13 28 mph 1015.1mb 36f
12:36 17 31 mph 1015mb 36f
12:30 13 31 mph 1014.9mb 35f
12:24 13 25 mph 1014.8mb 37f
12:18 15 29 mph 1014.7mb 37f
12:12 13 24 mph 1014.5mb 37f
12:06 8 18 mph 1014.5mb 38f
12:00 10 20 mph 1014.3mb 38f
11:54 13 28 mph 1014.1mb 38f
11:48 14 30 mph 1014mb 38f
11:42 10 24 mph 1013.9mb 38f
11:36 14 25 mph 1013.9mb 38f
11:30 13 28 mph 1013.8mb 38f
11:24 11 23 mph 1013.7mb 37f
11:18 14 29 mph 1013.6mb 38f
11:12 15 33 mph 1013.5mb 38f
11:06 10 20 mph 1013.3mb 38f
11:00 9 22 mph 1013.1mb 38f
10:54 14 28 mph 1013mb 38f
10:48 14 26 mph 1012.8mb 37f
10:42 9 20 mph 1012.7mb 39f
10:36 10 24 mph 1012.6mb 40f
10:30 11 22 mph 1012.4mb 39f
10:24 13 23 mph 1012.4mb 39f
10:18 13 26 mph 1012.4mb 39f
10:12 14 25 mph 1012.4mb 39f
10:06 11 23 mph 1012.3mb 40f
10:00 11 22 mph 1012.1mb 40f
9:54 9 18 mph 1012mb 40f
9:48 14 28 mph 1011.9mb 40f
9:42 15 26 mph 1011.9mb 38f
9:36 11 24 mph 1011.9mb 39f
9:30 14 34 mph 1011.7mb 41f
9:24 16 37 mph 1011.5mb 41f
9:18 13 26 mph 1011.3mb 41f
9:12 16 30 mph 1011.2mb 41f
9:06 15 30 mph 1011mb 40f
9:00 15 30 mph 1011mb 41f
8:54 13 29 mph 1011mb 41f
8:48 11 21 mph 1011mb 41f
8:42 13 26 mph 1011mb 41f
8:36 10 21 mph 1011mb 41f
8:30 9 18 mph 1010.8mb 41f
8:24 13 21 mph 1010.7mb 40f
8:18 13 20 mph 1010.7mb 40f
8:12 8 14 mph 1010.7mb 40f
8:06 10 16 mph 1010.8mb 40f
8:00 7 11 mph 1010.8mb 39f
7:54 9 15 mph 1010.8mb 39f
7:48 8 15 mph - -
7:42 8 14 mph 1010.7mb 39f
7:36 8 15 mph 1010.7mb 39f
7:30 7 13 mph 1010.7mb 39f
7:24 7 13 mph 1010.7mb 39f
7:18 7 10 mph 1010.7mb 39f
7:12 9 17 mph 1010.7mb 39f
7:06 8 17 mph 1010.6mb 39f
7:00 9 18 mph 1010.6mb 39f
6:54 10 20 mph 1010.5mb 38f
6:48 9 17 mph 1010.3mb 38f
6:42 10 17 mph 1010.3mb 38f
6:36 13 22 mph 1010.2mb 38f
6:30 10 18 mph 1010mb 39f
6:24 10 21 mph 1010mb 39f
6:18 7 14 mph - -
6:12 9 14 mph 1009.7mb 39f
6:06 10 16 mph 1009.7mb 39f
6:00 9 16 mph 1009.7mb 39f
5:54 7 14 mph 1009.7mb 39f
5:48 8 15 mph 1009.8mb 39f
5:42 5 8 mph 1009.8mb 39f
5:36 5 8 mph 1009.8mb 38f
5:30 7 11 mph 1009.7mb 39f
5:24 6 10 mph 1009.7mb 39f
5:18 6 11 mph 1009.5mb 39f
5:12 7 14 mph 1009.4mb 39f
5:06 3 7 mph 1009.5mb 39f
5:00 5 8 mph 1009.4mb 39f
4:54 6 10 mph 1009.3mb 40f
4:48 7 13 mph 1009.2mb 40f
4:42 6 9 mph 1009.2mb 40f
4:36 5 8 mph 1009.2mb 39f
4:30 3 6 mph 1009.2mb 38f
4:24 5 7 mph 1009.1mb 38f
4:18 5 6 mph - -
4:12 5 6 mph 1008.9mb 39f
4:06 5 6 mph 1008.9mb 39f
4:00 5 6 mph 1008.8mb 39f
3:54 5 6 mph 1008.7mb 39f
3:48 5 6 mph 1008.8mb 39f
3:42 3 5 mph 1008.8mb 38f
3:36 5 6 mph 1008.8mb 39f
3:30 5
mph
1008.9mb 39f
3:24 5
mph
1009.1mb 39f
3:18 5 6 mph 1009.2mb 39f
3:12 6 7 mph 1009.2mb 39f
3:06 5 6 mph 1009.3mb 39f
3:00 5 6 mph 1009.4mb 40f
2:54 6
mph
1009.4mb 40f
2:48 6 8 mph 1009.5mb -
2:42 6 9 mph 1009.6mb -
2:36 6 7 mph 1009.7mb -
2:30 5 6 mph 1009.8mb 40f
2:24 5 6 mph 1009.9mb 40f
2:18 5 6 mph 1010mb 40f
2:12 5 6 mph 1010mb 40f
2:06 5 6 mph 1010.1mb 41f
2:00 5 8 mph 1010.1mb 41f
1:54 5 8 mph 1010.2mb 42f
1:48 5 7 mph 1010.2mb 42f
1:42 5 7 mph - -
1:36 5 7 mph - -
1:30 6 7 mph 1010.3mb 42f
1:24 5 8 mph 1010.4mb 42f
1:18 5 6 mph - -
1:12 5 8 mph 1010.3mb 42f
1:06 5 6 mph 1010.3mb 43f
1:00 3 6 mph 1010.3mb 43f
12:54 5 6 mph 1010.4mb 43f
12:48 5 7 mph 1010.4mb 43f
12:42 5 7 mph 1010.5mb 43f
12:36 6 8 mph 1010.5mb 44f
12:30 5 8 mph 1010.6mb 44f
12:24 7 13 mph 1010.6mb 44f
12:18 6 10 mph 1010.5mb 44f
12:12 5 9 mph 1010.5mb 45f
12:06 5 10 mph 1010.4mb 44f
12:00 6 11 mph 1010.5mb 44f
Ter 03/21 11:54 6 10 mph 1010.7mb 45f
11:48 6 13 mph - -
11:42 6 13 mph 1010.8mb 45f
11:36 6 11 mph 1010.8mb 45f
11:30 5 10 mph 1010.9mb 45f
11:24 5 9 mph 1011mb 45f
11:18 6 11 mph 1011.1mb 45f
11:12 5 7 mph 1011.2mb 45f
11:06 5 10 mph 1011.2mb 45f
11:00 6 13 mph 1011.2mb 45f
10:54 6 11 mph 1011.2mb 45f
10:48 5 9 mph 1011.1mb 45f
10:42 5 8 mph 1011.1mb 45f
10:36 6 11 mph 1011.2mb 45f
10:30 5 8 mph 1011.2mb 44f
10:24 5 8 mph 1011.1mb 44f
10:18 5 9 mph 1011.1mb 44f
10:12 6 9 mph 1011.1mb 44f
10:06 3 7 mph 1011.1mb 44f
10:00 6 9 mph 1011mb 44f
9:54 6 10 mph 1010.8mb 45f
9:48 6 8 mph 1010.6mb -
9:42 6 8 mph 1010.5mb 45f
9:36 6 10 mph 1010.5mb 45f
9:30 6 9 mph 1010.5mb 45f
9:24 6 8 mph 1010.4mb 44f
9:18 5 8 mph 1010.4mb 44f
9:12 6 7 mph 1010.4mb 45f
9:06 6 8 mph 1010.4mb 45f
9:00 6 8 mph 1010.4mb 45f
8:54 6 8 mph 1010.3mb 45f
8:48 7 9 mph 1010.2mb -
8:42 6 9 mph 1010.2mb 44f
8:36 3 6 mph 1010.2mb 44f
8:30 5 7 mph 1010mb 43f
8:24 6 9 mph 1010mb 44f
8:18 6 10 mph 1009.9mb 44f
8:12 8 11 mph 1009.8mb 45f
8:06 8 13 mph 1009.7mb 47f
8:00 9 14 mph 1009.7mb 47f
7:54 9 13 mph 1009.8mb 47f
7:48 8 11 mph 1009.7mb -
7:42 7 10 mph 1009.7mb 46f
7:36 8 13 mph 1009.6mb 47f
7:30 7 11 mph 1009.5mb 47f
7:24 6 10 mph 1009.5mb 48f
7:18 7 10 mph 1009.5mb -
7:12 8 11 mph 1009.5mb 48f
7:06 7 10 mph 1009.4mb 48f
7:00 8 11 mph 1009.4mb 47f
6:54 6 8 mph 1009.3mb 47f
6:48 7 11 mph 1009.2mb 45f
6:42 8 13 mph 1009.1mb 47f
6:36 7 10 mph 1009mb 48f
6:30 6 10 mph 1009mb 47f
6:24 7 9 mph 1009mb 48f
6:18 7 10 mph - -
6:12 7 10 mph 1008.9mb 48f
6:06 3 6 mph 1008.9mb 49f
6:00 2
mph
1008.8mb 51f
5:54 3 6 mph 1008.8mb 51f
5:48 3 7 mph 1008.9mb -
5:42 3 5 mph 1008.8mb 52f
5:36 5 8 mph 1008.7mb 52f
5:30 5 8 mph 1008.8mb 50f
5:24 6 11 mph 1008.8mb 52f
5:18 6 10 mph 1008.8mb 52f
5:12 7 11 mph 1008.8mb 52f
5:06 7 10 mph 1008.9mb 51f
5:00 7 13 mph 1009mb 50f
4:54 7 14 mph 1008.9mb 50f
4:48 7 14 mph - -
4:42 7 13 mph 1009mb 50f
4:36 7 13 mph 1009.1mb 49f
4:30 8 16 mph 1009.1mb 49f
4:24 7 15 mph 1009.1mb 48f
4:18 8 17 mph 1009.1mb 49f
4:12 8 17 mph 1009.1mb 47f
4:06 8 16 mph 1009.2mb 48f
4:00 9 15 mph 1009.2mb 48f
3:54 9 16 mph 1009.3mb 49f
3:48 7 14 mph - -
3:42 8 15 mph 1009.6mb 50f
3:36 9 16 mph 1009.6mb 50f
3:30 9 17 mph 1009.7mb 49f
3:24 8 16 mph 1009.7mb 49f
3:18 9 18 mph 1009.7mb 49f
3:12 8 14 mph 1009.7mb 49f
3:06 7 16 mph 1009.6mb 50f
3:00 8 15 mph 1009.7mb 50f
2:54 8 16 mph 1009.7mb 50f
2:48 9 17 mph 1009.8mb 50f
2:42 10 17 mph 1009.9mb 49f
2:36 7 15 mph 1010mb 49f
2:30 9 16 mph 1010.1mb 50f
2:24 9 18 mph 1010.3mb 50f
2:18 8 17 mph 1010.3mb 50f
2:12 9 16 mph 1010.4mb 50f
2:06 9 17 mph 1010.6mb 49f
2:00 8 15 mph 1010.6mb 50f
1:54 7 14 mph 1010.7mb 50f
1:48 8 14 mph 1010.8mb 51f
1:42 8 14 mph 1010.9mb 51f
1:36 7 14 mph 1011mb 50f
1:30 6 10 mph 1011.1mb 50f
1:24 8 13 mph 1011.2mb 51f
1:18 5 8 mph 1011.4mb 50f
1:12 6 13 mph 1011.5mb 50f
1:06 6 11 mph 1011.6mb 49f
1:00 7 13 mph 1011.8mb 49f
12:54 6 13 mph 1011.8mb 48f
12:48 6 9 mph 1011.8mb 48f
12:42 6 11 mph 1011.8mb 48f
12:36 6 8 mph 1011.8mb 48f
12:30 6 9 mph 1011.9mb 47f
12:24 5 8 mph 1012mb 48f
12:18 6 8 mph 1012mb 48f
12:12 6 9 mph 1012mb 48f
12:06 5 6 mph 1012mb 47f
12:00 2 5 mph 1012mb 50f
11:54 3 6 mph 1012.1mb 51f
11:48 3 7 mph 1012.1mb 51f
11:42 2 5 mph 1012.2mb 50f
11:36 3 6 mph 1012.4mb 49f
11:30 3 6 mph 1012.4mb 47f
11:24 5 7 mph 1012.3mb 49f
11:18 5 6 mph 1012.3mb 48f
11:12 2 5 mph 1012.3mb 49f
11:06 2 5 mph 1012.3mb 48f
11:00 2 6 mph 1012.4mb 48f
10:54 3 5 mph 1012.4mb 48f
10:48 2 5 mph 1012.5mb 47f
10:42 2 3 mph 1012.5mb 47f
10:36 2 3 mph 1012.6mb 45f
10:30 2 3 mph 1012.6mb 45f
10:24 2 3 mph 1012.7mb 44f
10:18 2 3 mph 1012.7mb 44f
10:12 2 3 mph 1012.7mb 43f
10:06 2 3 mph 1012.8mb 44f
10:00 2 3 mph 1012.7mb 44f
9:54 3
mph
1012.8mb 42f
9:48 2
mph
1012.7mb 42f
9:42 2
mph
1012.7mb 42f
9:36 2 5 mph 1012.7mb 43f
9:30 1 3 mph 1012.6mb 44f
9:24 2 5 mph 1012.6mb 45f
9:18 2 5 mph 1012.7mb 44f
9:12 3 6 mph 1012.7mb 44f
9:06 2 5 mph 1012.7mb 44f
9:00 1 3 mph 1012.7mb 45f
8:54 1 3 mph 1012.7mb 45f
8:48 1 2 mph 1012.7mb 45f
8:42  -  1 mph 1012.7mb 43f
8:36 1 2 mph 1012.7mb 43f
8:30 2 3 mph 1012.8mb 42f
8:24 5 6 mph 1013mb 41f
8:18 3 6 mph - -
8:12 3 5 mph 1012.8mb 41f
8:06 2 3 mph 1012.7mb 40f
8:00  -  1 mph 1012.7mb 40f
7:54  -  1 mph 1012.6mb 40f
7:48  -  1 mph 1012.8mb 40f
7:42 2 3 mph 1012.8mb 39f
7:36 2 3 mph 1012.9mb 39f
7:30  -  1 mph 1012.9mb 39f
7:24  -  mph 1012.7mb 39f
7:18 1 2 mph 1012.7mb 39f
7:12 1
mph
1012.7mb 39f
7:06 1 2 mph 1012.6mb 39f
7:00 1 2 mph 1012.8mb 39f
6:54 2 3 mph 1012.8mb 39f
6:48 2
mph
1012.8mb 38f
6:42 1 3 mph 1012.7mb 38f
6:36 1 2 mph 1012.6mb 38f
6:30 2 6 mph 1012.6mb 38f
6:24 3 6 mph 1012.6mb 38f
6:18 3 7 mph 1012.6mb 38f
6:12 3 7 mph 1012.6mb 38f
6:06 3 6 mph 1012.6mb 38f
6:00 5 7 mph 1012.5mb 39f
5:54 5 6 mph 1012.5mb 39f
5:48 3 7 mph 1012.5mb 39f
5:42 5 7 mph 1012.4mb 39f
5:36 5 8 mph 1012.4mb 39f
5:30 6 9 mph 1012.3mb 39f
5:24 6 10 mph 1012.2mb 39f
5:18 6 13 mph 1012.1mb 40f
5:12 5 8 mph 1012.1mb 40f
5:06 6 10 mph 1012.1mb 40f
5:00 6 8 mph 1012.2mb 40f
4:54 6 9 mph 1012.1mb 40f
4:48 6 8 mph - -
4:42 5 8 mph 1012.1mb 41f
4:36 5 8 mph 1012.1mb 41f
4:30 5 8 mph 1012.1mb 41f
4:24 6 9 mph 1012.1mb 41f
4:18 5 9 mph 1012.3mb 41f
4:12 6 9 mph 1012.2mb 41f
4:06 5 6 mph 1012.2mb 41f
4:00 5 7 mph 1012.2mb 41f
3:54 5 8 mph 1012.2mb 40f
3:48 5 8 mph - -
3:42 5 8 mph 1012.3mb 41f
3:36 5 7 mph 1012.4mb 41f
3:30 3 6 mph 1012.4mb 41f
3:24 3 6 mph 1012.4mb 42f
3:18 5 8 mph 1012.3mb 42f
3:12 5 8 mph 1012.4mb 42f
3:06 3 7 mph 1012.5mb 42f
3:00 5 7 mph 1012.6mb 42f
2:54 5 8 mph 1012.6mb 42f
2:48 5 9 mph - -
2:42 5 8 mph 1013mb 41f
2:36 3 7 mph 1013mb 41f
2:30 3 6 mph 1013mb 41f
2:24 5 8 mph 1013.1mb 41f
2:18 5 8 mph 1013.1mb 41f
2:12 3 8 mph 1013.1mb 41f
2:06 5 8 mph 1013.2mb 41f
2:00 3 6 mph 1013.1mb 41f
1:54 5 8 mph 1013.1mb 40f
1:48 3 6 mph 1013.1mb 41f
1:42 5 9 mph 1013.1mb 40f
1:36 5 9 mph 1013.2mb 40f
1:30 5 11 mph 1013.2mb 40f
1:24 7 14 mph 1013.3mb 40f
1:18 5 8 mph 1013.3mb 39f
1:12 3 8 mph 1013.3mb 38f
1:06 3 7 mph 1013.2mb 38f
1:00 5 7 mph 1013.3mb 38f
12:54 3 5 mph 1013.3mb 38f
12:48 3 5 mph 1013.4mb 38f
12:42 3 5 mph 1013.6mb 37f
12:36 2 3 mph 1013.6mb 37f
12:30 2 3 mph 1013.7mb 37f
12:24 2
mph
1013.8mb 36f
12:18  -  1 mph 1013.7mb 36f
12:12 1 2 mph 1013.7mb 37f
12:06 2
mph
1013.8mb 37f
12:00 2 3 mph 1013.9mb 37f
Seg 03/20 11:54 2 3 mph 1013.9mb 37f
11:48 1 2 mph - -
11:42 2
mph
1014mb 36f
11:36 3
mph
1014mb 37f
11:30 3 5 mph 1014mb 37f
11:24 3 5 mph 1014.1mb 37f
11:18 3
mph
1014mb 37f
11:12 5 6 mph 1014.1mb 37f
11:06 6 7 mph 1014.2mb 37f
11:00 5 7 mph 1014.3mb 37f
10:54 5 6 mph 1014.2mb 38f
10:48 5
mph
1014.2mb 39f
10:42 5 6 mph 1014.1mb 39f
10:36 5 6 mph 1014.1mb 38f
10:30 5 6 mph 1014.1mb 38f
10:24 6 7 mph 1014.1mb 38f
10:18 5 7 mph 1014.1mb 38f
10:12 3 6 mph 1014.1mb 38f
10:06 3 5 mph 1014.1mb 38f
10:00 3 5 mph 1014.1mb 39f
9:54 5
mph
1014.1mb 40f
9:48 6 7 mph 1014.1mb -
9:42 3 5 mph 1014.2mb 39f
9:36 3 5 mph 1014.2mb 39f
9:30 2 3 mph 1014.2mb 40f
9:24  -  1 mph 1014.2mb 40f
9:18 2
mph
1014.1mb 41f
9:12 2
mph
1014.1mb 42f
9:06 2
mph
1014.2mb 43f
9:00 3
mph
1014.3mb 43f
8:54 1 2 mph 1014.3mb 42f
8:48  -  1 mph 1014.2mb -
8:42  -  1 mph 1014.1mb 44f
8:36  -  1 mph 1014.1mb 44f
8:30  -  1 mph 1014mb 44f
8:24 1
mph
1014mb 44f
8:18 1
mph
1014mb 44f
8:12 1
mph
1014mb 44f
8:06 1
mph
1014.1mb 45f
8:00 1 2 mph 1014.1mb 44f
7:54 2
mph
1014.1mb 44f
7:48 2 3 mph 1014mb -
7:42 3
mph
1014.1mb 44f
7:36 2
mph
1014mb 44f
7:30 2 3 mph 1014mb 45f
7:24 2
mph
1014mb 45f
7:18 2
mph
1013.9mb 46f
7:12 2 3 mph 1013.9mb 46f
7:06 2
mph
1013.9mb 47f
7:00 2 3 mph 1013.8mb 46f
6:54 3 5 mph 1013.8mb 45f
6:48 3 5 mph 1013.9mb -
6:42 2 3 mph 1014mb 44f
6:36 3 5 mph 1014mb 46f
6:30 5 6 mph 1014mb 45f
6:24 5 6 mph 1014mb 47f
6:18 7 8 mph 1013.9mb 47f
6:12 7 10 mph 1013.9mb 49f
6:06 6 9 mph 1014mb 49f
6:00 8 10 mph 1014mb 49f
5:54 8 11 mph 1014mb 49f
5:48 8 11 mph 1014mb -
5:42 7 11 mph 1014.1mb 49f
5:36 8 11 mph 1014.1mb 49f
5:30 9 13 mph 1014.2mb 48f
5:24 8 13 mph 1014.3mb 49f
5:18 10 14 mph 1014.3mb 49f
5:12 9 15 mph 1014.4mb 49f
5:06 7 11 mph 1014.4mb 49f
5:00 10 13 mph 1014.5mb 49f
4:54 9 14 mph 1014.5mb 50f
4:48 9 13 mph 1014.5mb 51f
4:42 8 14 mph 1014.6mb 51f
4:36 9 16 mph 1014.7mb 51f
4:30 7 13 mph 1014.8mb 51f
4:24 9 17 mph 1014.8mb 50f
4:18 6 10 mph 1014.8mb 49f
4:12 7 13 mph 1014.9mb 49f
4:06 8 14 mph 1014.8mb 50f
4:00 10 14 mph 1014.7mb 50f
3:54 11 16 mph 1014.7mb 50f
3:48 9 16 mph 1014.7mb 50f
3:42 9 16 mph 1014.7mb 50f
3:36 10 17 mph 1014.6mb 50f
3:30 11 18 mph 1014.5mb 50f
3:24 10 16 mph 1014.5mb 50f
3:18 10 15 mph 1014.5mb 50f
3:12 10 17 mph 1014.4mb 50f
3:06 8 17 mph 1014.4mb 49f
3:00 10 18 mph 1014.5mb 50f
2:54 10 17 mph 1014.5mb 50f
2:48 11 18 mph 1014.5mb 49f
2:42 11 16 mph 1014.6mb 49f
2:36 13 21 mph 1014.7mb 49f
2:30 11 17 mph 1014.8mb 49f
2:24 13 20 mph 1014.9mb 49f
2:18 13 20 mph 1015mb 49f
2:12 13 20 mph 1015mb 48f
2:06 15 21 mph 1015.1mb 49f
2:00 14 18 mph 1015.1mb 49f
1:54 14 20 mph 1015.1mb 48f
1:48 14 17 mph 1015.2mb 48f
1:42 14 18 mph 1015.2mb 48f
1:36 14 18 mph 1015.4mb 47f
1:30 16 21 mph 1015.4mb 46f
1:24 17 22 mph 1015.5mb 47f
1:18 17 22 mph 1015.6mb 47f
1:12 17 24 mph 1015.5mb 46f
1:06 17 22 mph 1015.6mb 47f
1:00 17 23 mph 1015.7mb 46f
12:54 15 21 mph 1015.9mb 47f
12:48 17 22 mph 1015.9mb 46f
12:42 21 28 mph 1015.9mb 46f
12:36 20 26 mph 1016mb 46f
12:30 16 22 mph 1016.1mb 45f
12:24 16 20 mph 1016.1mb 45f
12:18 16 23 mph - -
12:12 18 24 mph 1016.4mb 45f
12:06 16 23 mph 1016.4mb 45f
12:00 16 24 mph 1016.6mb 45f
11:54 20 26 mph 1016.7mb 45f
11:48 17 25 mph 1016.8mb 44f
11:42 20 26 mph 1016.9mb 44f
11:36 17 23 mph 1016.9mb 44f
11:30 18 24 mph 1017.1mb 45f
11:24 22 26 mph 1017.1mb 44f
11:18 21 29 mph 1017.1mb 43f
11:12 22 31 mph 1017.1mb 43f
11:06 18 24 mph 1017.1mb 43f
11:00 20 24 mph 1017.2mb 43f
10:54 21 29 mph 1017.4mb 42f
10:48 17 24 mph - -
10:42 20 30 mph 1017.5mb 42f
10:36 21 31 mph 1017.6mb 43f
10:30 18 24 mph 1017.6mb 42f
10:24 17 23 mph 1017.7mb 42f
10:18 22 29 mph 1017.7mb 41f
10:12 18 28 mph 1017.7mb 42f
10:06 16 23 mph 1017.7mb 42f
10:00 16 23 mph 1017.7mb 41f
9:54 16 23 mph 1017.7mb 41f
9:48 16 24 mph 1017.6mb 41f
9:42 17 25 mph 1017.6mb 41f
9:36 14 20 mph 1017.5mb 41f
9:30 16 23 mph 1017.6mb 40f
9:24 18 25 mph 1017.4mb 40f
9:18 14 22 mph 1017.4mb 40f
9:12 15 22 mph 1017.4mb 40f
9:06 15 21 mph 1017.3mb 39f
9:00 18 25 mph 1017.5mb 39f
8:54 17 25 mph 1017.5mb 39f
8:48 20 26 mph 1017.5mb 39f
8:42 18 25 mph 1017.5mb 39f
8:36 20 25 mph 1017.6mb 39f
8:30 15 24 mph 1017.7mb 39f
8:24 16 23 mph 1017.6mb 38f
8:18 16 21 mph 1017.7mb 38f
8:12 16 23 mph 1017.7mb 38f
8:06 15 23 mph 1017.8mb 38f
8:00 16 24 mph 1017.8mb 38f
7:54 16 24 mph 1017.8mb 38f
7:48 15 22 mph 1017.8mb 38f
7:42 15 22 mph 1017.8mb 38f
7:36 13 18 mph 1017.8mb 37f
7:30 14 22 mph 1017.8mb 37f
7:24 13 22 mph 1017.7mb 37f
7:18 13 21 mph 1017.6mb 37f
7:12 11 18 mph 1017.5mb 36f
7:06 11 21 mph 1017.5mb 36f
7:00 13 16 mph 1017.4mb 36f
6:54 11 17 mph 1017.4mb 36f
6:48 11 17 mph 1017.3mb 36f
6:42 13 21 mph 1017.3mb 36f
6:36 14 20 mph 1017.3mb 36f
6:30 13 21 mph 1017.3mb 36f
6:24 15 21 mph 1017.3mb 36f